createdAt,value
2018-12-17T00:07:42.514Z,12.8
2018-12-17T00:17:41.715Z,12.7
2018-12-17T00:27:40.924Z,12.7
2018-12-17T00:37:40.139Z,12.7
2018-12-17T00:47:39.348Z,12.4
2018-12-17T00:57:38.564Z,13.1
2018-12-17T01:07:37.770Z,12.5
2018-12-17T01:17:36.983Z,13.2
2018-12-17T01:27:36.200Z,12.5
2018-12-17T01:37:35.413Z,12.8
2018-12-17T01:47:34.616Z,13.2
2018-12-17T01:57:33.834Z,13.2
2018-12-17T02:07:33.042Z,12.8
2018-12-17T02:17:32.258Z,13.2
2018-12-17T02:27:31.468Z,13.2
2018-12-17T02:37:30.683Z,12.5
2018-12-17T02:47:29.886Z,13.1
2018-12-17T02:57:29.102Z,12.6
2018-12-17T03:07:28.317Z,12.5
2018-12-17T03:17:27.518Z,13
2018-12-17T03:27:26.730Z,12.6
2018-12-17T03:37:25.948Z,12.7
2018-12-17T03:47:25.159Z,13.2
2018-12-17T03:57:24.415Z,12.5
2018-12-17T04:07:23.590Z,13.2
2018-12-17T04:17:22.796Z,13.1
2018-12-17T04:27:22.010Z,13
2018-12-17T04:37:21.213Z,13.2
2018-12-17T04:47:20.429Z,12.5
2018-12-17T04:57:19.651Z,13.2
2018-12-17T05:07:18.865Z,13.1
2018-12-17T05:17:18.072Z,12.5
2018-12-17T05:27:17.282Z,12.9
2018-12-17T05:37:16.503Z,12.7
2018-12-17T05:47:15.712Z,12.5
2018-12-17T05:57:14.923Z,12.9
2018-12-17T06:07:14.137Z,12.8
2018-12-17T06:17:13.347Z,13
2018-12-17T06:27:12.563Z,13.2
2018-12-17T06:37:11.774Z,12.9
2018-12-17T06:47:10.982Z,12.7
2018-12-17T06:57:10.190Z,13
2018-12-17T07:07:09.398Z,12.6
2018-12-17T07:17:08.601Z,12.6
2018-12-17T07:27:07.824Z,13
2018-12-17T07:37:07.019Z,12.5
2018-12-17T07:47:06.227Z,13.3
2018-12-17T07:57:05.438Z,13.1
2018-12-17T08:07:04.643Z,13
2018-12-17T08:17:03.856Z,13.3
2018-12-17T08:27:03.069Z,13.5
2018-12-17T08:37:02.272Z,13.8
2018-12-17T08:47:01.475Z,14
2018-12-17T08:57:00.697Z,14.7
2018-12-17T09:06:59.895Z,13.8
2018-12-17T09:16:59.101Z,14.4
2018-12-17T09:26:58.326Z,14.2
2018-12-17T09:36:57.512Z,14.3
2018-12-17T09:46:56.725Z,14.2
2018-12-17T09:56:55.936Z,13.9
2018-12-17T10:06:55.143Z,13.5
2018-12-17T10:16:54.343Z,13.5
2018-12-17T10:26:53.554Z,13.8
2018-12-17T10:36:52.766Z,14.3
2018-12-17T10:46:51.969Z,14.5
2018-12-17T10:56:51.174Z,14.4
2018-12-17T11:06:50.381Z,14.2
2018-12-17T11:16:49.595Z,14.4
2018-12-17T11:26:48.801Z,13.8
2018-12-17T11:36:48.016Z,14.6
2018-12-17T11:46:47.231Z,14.6
2018-12-17T11:56:46.442Z,13.9
2018-12-17T12:06:45.649Z,13.9
2018-12-17T12:16:44.864Z,13.7
2018-12-17T12:26:44.069Z,12.8
2018-12-17T12:36:43.276Z,12.7
2018-12-17T12:46:42.488Z,13.1
2018-12-17T12:56:41.698Z,13
2018-12-17T13:06:40.909Z,12.9
2018-12-17T13:16:40.114Z,12.9
2018-12-17T13:26:39.319Z,13.3
2018-12-17T13:36:38.522Z,12.8
2018-12-17T13:46:37.737Z,13.1
2018-12-17T13:56:36.935Z,13
2018-12-17T14:06:36.150Z,12.9
2018-12-17T14:16:35.350Z,13.3
2018-12-17T14:26:34.561Z,13.1
2018-12-17T14:36:33.777Z,13.1
2018-12-17T14:46:32.987Z,13
2018-12-17T14:56:32.197Z,13.2
2018-12-17T15:06:31.404Z,13
2018-12-17T15:16:30.618Z,13
2018-12-17T15:26:29.860Z,12.7
2018-12-17T15:36:29.045Z,12.5
2018-12-17T15:46:28.259Z,12.7
2018-12-17T15:56:27.472Z,13
2018-12-17T16:06:26.690Z,12.7
2018-12-17T16:16:25.893Z,12.8
2018-12-17T16:26:25.115Z,13.1
2018-12-17T16:36:24.319Z,12.7
2018-12-17T16:46:23.632Z,13
2018-12-17T16:56:22.740Z,12.6
2018-12-17T17:06:21.952Z,12.5
2018-12-17T17:16:21.176Z,13.1
2018-12-17T17:26:20.384Z,12.7
2018-12-17T17:36:19.598Z,13.2
2018-12-17T17:46:18.805Z,12.9
2018-12-17T17:56:18.018Z,12.5
2018-12-17T18:06:17.227Z,12.4
2018-12-17T18:16:16.442Z,13
2018-12-17T18:26:15.658Z,12.5
2018-12-17T18:36:14.871Z,12.8
2018-12-17T18:46:14.078Z,13.1
2018-12-17T18:56:13.288Z,12.4
2018-12-17T19:06:12.510Z,12.5
2018-12-17T19:16:11.709Z,13.1
2018-12-17T19:26:10.928Z,12.7
2018-12-17T19:36:10.371Z,12.5
2018-12-17T19:46:09.350Z,12.7
2018-12-17T19:56:08.568Z,12.7
2018-12-17T20:06:07.777Z,12.5
2018-12-17T20:16:06.993Z,13.2
2018-12-17T20:26:06.211Z,12.3
2018-12-17T20:36:05.418Z,12.6
2018-12-17T20:46:04.628Z,13.2
2018-12-17T20:56:03.843Z,13.2
2018-12-17T21:06:03.053Z,12.5
2018-12-17T21:16:02.300Z,13.1
2018-12-17T21:26:01.475Z,13
2018-12-17T21:36:00.684Z,13.2
2018-12-17T21:45:59.896Z,12.7
2018-12-17T21:55:59.106Z,12.6
2018-12-17T22:05:58.312Z,13.2
2018-12-17T22:15:57.530Z,12.8
2018-12-17T22:25:56.740Z,12.9
2018-12-17T22:35:55.947Z,12.7
2018-12-17T22:45:55.153Z,13
2018-12-17T22:55:54.373Z,13.2
2018-12-17T23:05:53.573Z,12.5
2018-12-17T23:15:52.785Z,12.8
2018-12-17T23:25:51.995Z,13.1
2018-12-17T23:35:51.196Z,12.9
2018-12-17T23:45:50.406Z,12.3
2018-12-17T23:55:49.616Z,13.1
